sensor_id;sensor_type;location;lat;lon;timestamp;P1;durP1;ratioP1;P2;durP2;ratioP2
62163;SDS011;48149;51.132;7.178;2023-10-13T00:01:54;14.68;;;6.45;;
62163;SDS011;48149;51.132;7.178;2023-10-13T00:04:21;14.27;;;6.55;;
62163;SDS011;48149;51.132;7.178;2023-10-13T00:06:55;14.98;;;6.13;;
62163;SDS011;48149;51.132;7.178;2023-10-13T00:09:27;11.40;;;5.45;;
62163;SDS011;48149;51.132;7.178;2023-10-13T00:12:03;11.02;;;5.88;;
62163;SDS011;48149;51.132;7.178;2023-10-13T00:14:38;17.60;;;6.38;;
62163;SDS011;48149;51.132;7.178;2023-10-13T00:17:04;12.07;;;6.22;;
62163;SDS011;48149;51.132;7.178;2023-10-13T00:19:33;15.07;;;6.18;;
62163;SDS011;48149;51.132;7.178;2023-10-13T00:22:06;14.57;;;6.28;;
62163;SDS011;48149;51.132;7.178;2023-10-13T00:24:34;14.13;;;6.15;;
62163;SDS011;48149;51.132;7.178;2023-10-13T00:27:08;14.98;;;6.28;;
62163;SDS011;48149;51.132;7.178;2023-10-13T00:29:49;12.52;;;6.20;;
62163;SDS011;48149;51.132;7.178;2023-10-13T00:32:15;10.57;;;5.85;;
62163;SDS011;48149;51.132;7.178;2023-10-13T00:34:45;10.93;;;5.75;;
62163;SDS011;48149;51.132;7.178;2023-10-13T00:37:10;11.25;;;6.03;;
62163;SDS011;48149;51.132;7.178;2023-10-13T00:39:38;11.98;;;5.80;;
62163;SDS011;48149;51.132;7.178;2023-10-13T00:42:09;11.95;;;5.97;;
62163;SDS011;48149;51.132;7.178;2023-10-13T00:44:43;14.93;;;6.43;;
62163;SDS011;48149;51.132;7.178;2023-10-13T00:47:13;13.48;;;6.30;;
62163;SDS011;48149;51.132;7.178;2023-10-13T00:50:03;12.02;;;5.47;;
62163;SDS011;48149;51.132;7.178;2023-10-13T00:52:30;13.23;;;6.05;;
62163;SDS011;48149;51.132;7.178;2023-10-13T00:54:58;12.60;;;5.55;;
62163;SDS011;48149;51.132;7.178;2023-10-13T00:57:25;13.15;;;6.28;;
62163;SDS011;48149;51.132;7.178;2023-10-13T00:59:54;14.43;;;6.38;;
62163;SDS011;48149;51.132;7.178;2023-10-13T01:02:22;10.30;;;5.70;;
62163;SDS011;48149;51.132;7.178;2023-10-13T01:05:01;12.27;;;6.10;;
62163;SDS011;48149;51.132;7.178;2023-10-13T01:07:28;12.95;;;5.85;;
62163;SDS011;48149;51.132;7.178;2023-10-13T01:09:53;13.13;;;6.13;;
62163;SDS011;48149;51.132;7.178;2023-10-13T01:12:19;10.35;;;5.22;;
62163;SDS011;48149;51.132;7.178;2023-10-13T01:14:45;14.00;;;5.88;;
62163;SDS011;48149;51.132;7.178;2023-10-13T01:17:11;10.00;;;5.45;;
62163;SDS011;48149;51.132;7.178;2023-10-13T01:19:37;12.77;;;5.38;;
62163;SDS011;48149;51.132;7.178;2023-10-13T01:22:10;13.55;;;6.22;;
62163;SDS011;48149;51.132;7.178;2023-10-13T01:24:36;10.48;;;5.72;;
62163;SDS011;48149;51.132;7.178;2023-10-13T01:27:02;8.60;;;5.47;;
62163;SDS011;48149;51.132;7.178;2023-10-13T01:29:54;11.50;;;5.60;;
62163;SDS011;48149;51.132;7.178;2023-10-13T01:32:31;12.80;;;6.05;;
62163;SDS011;48149;51.132;7.178;2023-10-13T01:34:56;9.70;;;5.43;;
62163;SDS011;48149;51.132;7.178;2023-10-13T01:37:31;9.85;;;5.40;;
62163;SDS011;48149;51.132;7.178;2023-10-13T01:39:56;12.93;;;5.45;;
62163;SDS011;48149;51.132;7.178;2023-10-13T01:42:22;9.93;;;6.53;;
62163;SDS011;48149;51.132;7.178;2023-10-13T01:44:49;13.57;;;6.15;;
62163;SDS011;48149;51.132;7.178;2023-10-13T01:47:15;11.25;;;6.07;;
62163;SDS011;48149;51.132;7.178;2023-10-13T01:49:43;12.90;;;6.53;;
62163;SDS011;48149;51.132;7.178;2023-10-13T01:52:12;15.40;;;6.00;;
62163;SDS011;48149;51.132;7.178;2023-10-13T01:54:44;12.48;;;6.65;;
62163;SDS011;48149;51.132;7.178;2023-10-13T01:57:11;11.63;;;6.00;;
62163;SDS011;48149;51.132;7.178;2023-10-13T01:59:43;9.88;;;5.32;;
62163;SDS011;48149;51.132;7.178;2023-10-13T02:02:12;11.98;;;5.72;;
62163;SDS011;48149;51.132;7.178;2023-10-13T02:04:41;11.10;;;5.85;;
62163;SDS011;48149;51.132;7.178;2023-10-13T02:07:21;12.00;;;6.18;;
62163;SDS011;48149;51.132;7.178;2023-10-13T02:09:51;13.25;;;6.07;;
62163;SDS011;48149;51.132;7.178;2023-10-13T02:12:19;11.32;;;6.32;;
62163;SDS011;48149;51.132;7.178;2023-10-13T02:14:50;14.55;;;6.00;;
62163;SDS011;48149;51.132;7.178;2023-10-13T02:17:16;13.32;;;6.38;;
62163;SDS011;48149;51.132;7.178;2023-10-13T02:19:46;13.23;;;6.07;;
62163;SDS011;48149;51.132;7.178;2023-10-13T02:22:12;13.07;;;6.78;;
62163;SDS011;48149;51.132;7.178;2023-10-13T02:24:50;11.90;;;6.72;;
62163;SDS011;48149;51.132;7.178;2023-10-13T02:27:17;14.55;;;6.53;;
62163;SDS011;48149;51.132;7.178;2023-10-13T02:29:48;11.13;;;5.75;;
62163;SDS011;48149;51.132;7.178;2023-10-13T02:32:14;13.30;;;6.60;;
62163;SDS011;48149;51.132;7.178;2023-10-13T02:34:49;17.77;;;6.30;;
62163;SDS011;48149;51.132;7.178;2023-10-13T02:37:14;11.95;;;6.75;;
62163;SDS011;48149;51.132;7.178;2023-10-13T02:39:43;13.73;;;6.13;;
62163;SDS011;48149;51.132;7.178;2023-10-13T02:42:09;10.18;;;5.72;;
62163;SDS011;48149;51.132;7.178;2023-10-13T02:44:41;16.15;;;7.20;;
62163;SDS011;48149;51.132;7.178;2023-10-13T02:47:11;12.03;;;6.93;;
62163;SDS011;48149;51.132;7.178;2023-10-13T02:49:40;14.77;;;6.68;;
62163;SDS011;48149;51.132;7.178;2023-10-13T02:52:09;14.88;;;6.43;;
62163;SDS011;48149;51.132;7.178;2023-10-13T02:54:35;14.23;;;7.00;;
62163;SDS011;48149;51.132;7.178;2023-10-13T02:57:15;16.23;;;6.80;;
62163;SDS011;48149;51.132;7.178;2023-10-13T02:59:42;16.45;;;7.50;;
62163;SDS011;48149;51.132;7.178;2023-10-13T03:02:12;15.77;;;7.50;;
62163;SDS011;48149;51.132;7.178;2023-10-13T03:04:55;16.55;;;6.80;;
62163;SDS011;48149;51.132;7.178;2023-10-13T03:07:24;12.67;;;6.63;;
62163;SDS011;48149;51.132;7.178;2023-10-13T03:09:53;17.80;;;7.75;;
62163;SDS011;48149;51.132;7.178;2023-10-13T03:12:23;13.88;;;7.07;;
62163;SDS011;48149;51.132;7.178;2023-10-13T03:14:49;14.93;;;6.38;;
62163;SDS011;48149;51.132;7.178;2023-10-13T03:17:22;14.82;;;6.97;;
62163;SDS011;48149;51.132;7.178;2023-10-13T03:19:58;18.33;;;7.07;;
62163;SDS011;48149;51.132;7.178;2023-10-13T03:22:24;15.00;;;7.00;;
62163;SDS011;48149;51.132;7.178;2023-10-13T03:24:55;15.63;;;7.30;;
62163;SDS011;48149;51.132;7.178;2023-10-13T03:27:25;15.38;;;6.20;;
62163;SDS011;48149;51.132;7.178;2023-10-13T03:30:04;13.65;;;6.72;;
62163;SDS011;48149;51.132;7.178;2023-10-13T03:32:35;15.93;;;6.97;;
62163;SDS011;48149;51.132;7.178;2023-10-13T03:35:07;13.48;;;6.07;;
62163;SDS011;48149;51.132;7.178;2023-10-13T03:37:38;16.05;;;6.45;;
62163;SDS011;48149;51.132;7.178;2023-10-13T03:40:04;16.30;;;7.03;;
62163;SDS011;48149;51.132;7.178;2023-10-13T03:42:46;15.00;;;6.90;;
62163;SDS011;48149;51.132;7.178;2023-10-13T03:45:38;18.48;;;7.32;;
62163;SDS011;48149;51.132;7.178;2023-10-13T03:48:08;17.85;;;7.07;;
62163;SDS011;48149;51.132;7.178;2023-10-13T03:50:36;13.70;;;7.20;;
62163;SDS011;48149;51.132;7.178;2023-10-13T03:53:03;13.70;;;7.00;;
62163;SDS011;48149;51.132;7.178;2023-10-13T03:55:31;12.63;;;6.63;;
62163;SDS011;48149;51.132;7.178;2023-10-13T03:58:00;18.40;;;7.03;;
62163;SDS011;48149;51.132;7.178;2023-10-13T04:00:26;13.70;;;7.05;;
62163;SDS011;48149;51.132;7.178;2023-10-13T04:02:55;14.48;;;7.30;;
62163;SDS011;48149;51.132;7.178;2023-10-13T04:05:39;17.25;;;7.47;;
62163;SDS011;48149;51.132;7.178;2023-10-13T04:08:04;18.85;;;8.23;;
62163;SDS011;48149;51.132;7.178;2023-10-13T04:10:49;15.32;;;7.30;;
62163;SDS011;48149;51.132;7.178;2023-10-13T04:13:16;17.48;;;7.45;;
62163;SDS011;48149;51.132;7.178;2023-10-13T04:16:00;18.60;;;8.27;;
62163;SDS011;48149;51.132;7.178;2023-10-13T04:18:44;13.68;;;7.18;;
62163;SDS011;48149;51.132;7.178;2023-10-13T04:26:47;20.83;;;9.13;;
62163;SDS011;48149;51.132;7.178;2023-10-13T04:32:17;15.82;;;7.70;;
62163;SDS011;48149;51.132;7.178;2023-10-13T04:34:59;16.23;;;7.03;;
62163;SDS011;48149;51.132;7.178;2023-10-13T04:37:42;18.65;;;7.32;;
62163;SDS011;48149;51.132;7.178;2023-10-13T04:40:26;15.80;;;7.22;;
62163;SDS011;48149;51.132;7.178;2023-10-13T04:43:00;14.98;;;7.60;;
62163;SDS011;48149;51.132;7.178;2023-10-13T04:45:30;18.98;;;7.57;;
62163;SDS011;48149;51.132;7.178;2023-10-13T04:47:56;16.15;;;7.57;;
62163;SDS011;48149;51.132;7.178;2023-10-13T04:50:23;13.43;;;7.47;;
62163;SDS011;48149;51.132;7.178;2023-10-13T04:52:59;13.75;;;7.38;;
62163;SDS011;48149;51.132;7.178;2023-10-13T04:55:28;15.45;;;7.97;;
62163;SDS011;48149;51.132;7.178;2023-10-13T04:58:24;14.10;;;7.47;;
62163;SDS011;48149;51.132;7.178;2023-10-13T05:00:59;15.20;;;7.85;;
62163;SDS011;48149;51.132;7.178;2023-10-13T05:03:43;15.68;;;6.85;;
62163;SDS011;48149;51.132;7.178;2023-10-13T05:06:38;17.05;;;7.32;;
62163;SDS011;48149;51.132;7.178;2023-10-13T05:09:12;17.52;;;7.72;;
62163;SDS011;48149;51.132;7.178;2023-10-13T05:11:57;17.67;;;8.45;;
62163;SDS011;48149;51.132;7.178;2023-10-13T05:14:52;21.00;;;7.85;;
62163;SDS011;48149;51.132;7.178;2023-10-13T05:17:36;13.55;;;7.40;;
62163;SDS011;48149;51.132;7.178;2023-10-13T05:20:20;17.52;;;7.38;;
62163;SDS011;48149;51.132;7.178;2023-10-13T05:23:04;15.60;;;7.68;;
62163;SDS011;48149;51.132;7.178;2023-10-13T05:25:48;13.48;;;7.20;;
62163;SDS011;48149;51.132;7.178;2023-10-13T05:28:32;12.77;;;7.05;;
62163;SDS011;48149;51.132;7.178;2023-10-13T05:31:16;15.45;;;7.25;;
62163;SDS011;48149;51.132;7.178;2023-10-13T05:34:00;13.65;;;6.28;;
62163;SDS011;48149;51.132;7.178;2023-10-13T05:36:44;17.00;;;7.38;;
62163;SDS011;48149;51.132;7.178;2023-10-13T05:39:28;12.93;;;7.10;;
62163;SDS011;48149;51.132;7.178;2023-10-13T05:42:12;13.60;;;7.20;;
62163;SDS011;48149;51.132;7.178;2023-10-13T05:44:56;15.63;;;8.32;;
62163;SDS011;48149;51.132;7.178;2023-10-13T05:47:41;21.27;;;7.20;;
62163;SDS011;48149;51.132;7.178;2023-10-13T05:50:07;20.13;;;7.40;;
62163;SDS011;48149;51.132;7.178;2023-10-13T05:52:45;14.77;;;7.63;;
62163;SDS011;48149;51.132;7.178;2023-10-13T05:55:20;18.70;;;7.45;;
62163;SDS011;48149;51.132;7.178;2023-10-13T05:58:05;19.27;;;7.35;;
62163;SDS011;48149;51.132;7.178;2023-10-13T06:00:49;13.60;;;6.05;;
62163;SDS011;48149;51.132;7.178;2023-10-13T06:03:33;16.70;;;7.20;;
62163;SDS011;48149;51.132;7.178;2023-10-13T06:06:17;20.35;;;8.10;;
62163;SDS011;48149;51.132;7.178;2023-10-13T06:09:01;15.45;;;7.63;;
62163;SDS011;48149;51.132;7.178;2023-10-13T06:11:45;18.90;;;7.57;;
62163;SDS011;48149;51.132;7.178;2023-10-13T06:14:29;14.07;;;6.82;;
62163;SDS011;48149;51.132;7.178;2023-10-13T06:17:13;13.90;;;7.03;;
62163;SDS011;48149;51.132;7.178;2023-10-13T06:19:57;17.95;;;7.25;;
62163;SDS011;48149;51.132;7.178;2023-10-13T06:22:42;14.70;;;7.25;;
62163;SDS011;48149;51.132;7.178;2023-10-13T06:25:26;15.45;;;7.80;;
62163;SDS011;48149;51.132;7.178;2023-10-13T06:28:10;22.48;;;8.98;;
62163;SDS011;48149;51.132;7.178;2023-10-13T06:30:55;14.70;;;7.38;;
62163;SDS011;48149;51.132;7.178;2023-10-13T06:33:23;15.98;;;7.05;;
62163;SDS011;48149;51.132;7.178;2023-10-13T06:35:54;16.10;;;7.35;;
62163;SDS011;48149;51.132;7.178;2023-10-13T06:38:24;14.40;;;6.60;;
62163;SDS011;48149;51.132;7.178;2023-10-13T06:40:49;13.20;;;6.90;;
62163;SDS011;48149;51.132;7.178;2023-10-13T06:43:21;12.43;;;6.60;;
62163;SDS011;48149;51.132;7.178;2023-10-13T06:45:49;19.92;;;7.63;;
62163;SDS011;48149;51.132;7.178;2023-10-13T06:48:26;14.50;;;6.65;;
62163;SDS011;48149;51.132;7.178;2023-10-13T06:50:52;14.18;;;7.18;;
62163;SDS011;48149;51.132;7.178;2023-10-13T06:53:21;12.43;;;6.03;;
62163;SDS011;48149;51.132;7.178;2023-10-13T06:55:47;16.00;;;6.55;;
62163;SDS011;48149;51.132;7.178;2023-10-13T06:58:17;12.80;;;6.18;;
62163;SDS011;48149;51.132;7.178;2023-10-13T07:00:48;15.02;;;7.03;;
62163;SDS011;48149;51.132;7.178;2023-10-13T07:03:23;11.88;;;6.18;;
62163;SDS011;48149;51.132;7.178;2023-10-13T07:05:50;12.98;;;6.38;;
62163;SDS011;48149;51.132;7.178;2023-10-13T07:08:16;12.18;;;6.10;;
62163;SDS011;48149;51.132;7.178;2023-10-13T07:10:51;17.73;;;6.53;;
62163;SDS011;48149;51.132;7.178;2023-10-13T07:13:30;15.02;;;6.72;;
62163;SDS011;48149;51.132;7.178;2023-10-13T07:15:56;15.20;;;6.30;;
62163;SDS011;48149;51.132;7.178;2023-10-13T07:18:30;13.18;;;6.22;;
62163;SDS011;48149;51.132;7.178;2023-10-13T07:21:03;17.67;;;6.82;;
62163;SDS011;48149;51.132;7.178;2023-10-13T07:23:35;15.98;;;6.10;;
62163;SDS011;48149;51.132;7.178;2023-10-13T07:26:04;14.52;;;6.00;;
62163;SDS011;48149;51.132;7.178;2023-10-13T07:28:34;10.43;;;6.05;;
62163;SDS011;48149;51.132;7.178;2023-10-13T07:31:12;12.45;;;5.63;;
62163;SDS011;48149;51.132;7.178;2023-10-13T07:33:38;21.20;;;5.63;;
62163;SDS011;48149;51.132;7.178;2023-10-13T07:36:06;20.98;;;6.63;;
62163;SDS011;48149;51.132;7.178;2023-10-13T07:38:56;14.35;;;5.70;;
62163;SDS011;48149;51.132;7.178;2023-10-13T07:41:39;13.85;;;6.03;;
62163;SDS011;48149;51.132;7.178;2023-10-13T07:44:07;14.95;;;5.22;;
62163;SDS011;48149;51.132;7.178;2023-10-13T07:46:32;10.27;;;5.50;;
62163;SDS011;48149;51.132;7.178;2023-10-13T07:49:00;16.05;;;5.18;;
62163;SDS011;48149;51.132;7.178;2023-10-13T07:51:40;13.37;;;6.27;;
62163;SDS011;48149;51.132;7.178;2023-10-13T07:54:14;15.70;;;6.50;;
62163;SDS011;48149;51.132;7.178;2023-10-13T07:56:49;15.23;;;5.93;;
62163;SDS011;48149;51.132;7.178;2023-10-13T07:59:15;14.68;;;6.32;;
62163;SDS011;48149;51.132;7.178;2023-10-13T08:01:41;15.43;;;6.10;;
62163;SDS011;48149;51.132;7.178;2023-10-13T08:04:08;11.43;;;5.47;;
62163;SDS011;48149;51.132;7.178;2023-10-13T08:06:37;16.08;;;5.60;;
62163;SDS011;48149;51.132;7.178;2023-10-13T08:09:06;16.17;;;5.75;;
62163;SDS011;48149;51.132;7.178;2023-10-13T08:11:50;13.30;;;5.53;;
62163;SDS011;48149;51.132;7.178;2023-10-13T08:14:19;12.13;;;5.53;;
62163;SDS011;48149;51.132;7.178;2023-10-13T08:16:47;16.33;;;5.20;;
62163;SDS011;48149;51.132;7.178;2023-10-13T08:19:26;10.27;;;5.45;;
62163;SDS011;48149;51.132;7.178;2023-10-13T08:21:53;12.70;;;4.78;;
62163;SDS011;48149;51.132;7.178;2023-10-13T08:24:24;9.82;;;4.65;;
62163;SDS011;48149;51.132;7.178;2023-10-13T08:27:11;12.27;;;4.68;;
62163;SDS011;48149;51.132;7.178;2023-10-13T08:29:45;11.60;;;5.22;;
62163;SDS011;48149;51.132;7.178;2023-10-13T08:32:34;12.90;;;4.88;;
62163;SDS011;48149;51.132;7.178;2023-10-13T08:35:00;8.27;;;4.15;;
62163;SDS011;48149;51.132;7.178;2023-10-13T08:37:32;13.02;;;4.63;;
62163;SDS011;48149;51.132;7.178;2023-10-13T08:40:11;10.55;;;4.28;;
62163;SDS011;48149;51.132;7.178;2023-10-13T08:42:56;12.20;;;4.93;;
62163;SDS011;48149;51.132;7.178;2023-10-13T08:45:27;12.73;;;4.53;;
62163;SDS011;48149;51.132;7.178;2023-10-13T08:47:57;10.88;;;4.13;;
62163;SDS011;48149;51.132;7.178;2023-10-13T08:50:33;13.30;;;5.00;;
62163;SDS011;48149;51.132;7.178;2023-10-13T08:55:56;7.78;;;3.72;;
62163;SDS011;48149;51.132;7.178;2023-10-13T08:58:58;14.52;;;4.03;;
62163;SDS011;48149;51.132;7.178;2023-10-13T09:04:09;11.63;;;3.70;;
62163;SDS011;48149;51.132;7.178;2023-10-13T09:06:56;9.90;;;3.88;;
62163;SDS011;48149;51.132;7.178;2023-10-13T09:09:25;9.30;;;3.85;;
62163;SDS011;48149;51.132;7.178;2023-10-13T09:12:24;12.40;;;4.03;;
62163;SDS011;48149;51.132;7.178;2023-10-13T09:14:59;16.00;;;5.03;;
62163;SDS011;48149;51.132;7.178;2023-10-13T09:17:30;14.75;;;4.05;;
62163;SDS011;48149;51.132;7.178;2023-10-13T09:20:00;14.95;;;5.78;;
62163;SDS011;48149;51.132;7.178;2023-10-13T09:22:46;11.05;;;5.05;;
62163;SDS011;48149;51.132;7.178;2023-10-13T09:25:27;10.98;;;3.55;;
62163;SDS011;48149;51.132;7.178;2023-10-13T09:27:58;11.15;;;4.40;;
62163;SDS011;48149;51.132;7.178;2023-10-13T09:30:25;12.70;;;4.80;;
62163;SDS011;48149;51.132;7.178;2023-10-13T09:33:00;10.57;;;3.65;;
62163;SDS011;48149;51.132;7.178;2023-10-13T09:35:27;10.40;;;4.25;;
62163;SDS011;48149;51.132;7.178;2023-10-13T09:37:56;9.20;;;3.50;;
62163;SDS011;48149;51.132;7.178;2023-10-13T09:40:23;7.80;;;3.88;;
62163;SDS011;48149;51.132;7.178;2023-10-13T09:42:58;19.00;;;5.03;;
62163;SDS011;48149;51.132;7.178;2023-10-13T09:45:28;15.75;;;4.95;;
62163;SDS011;48149;51.132;7.178;2023-10-13T09:47:59;8.27;;;4.00;;
62163;SDS011;48149;51.132;7.178;2023-10-13T09:50:31;9.45;;;4.13;;
62163;SDS011;48149;51.132;7.178;2023-10-13T09:53:05;11.35;;;4.30;;
62163;SDS011;48149;51.132;7.178;2023-10-13T09:55:35;12.50;;;4.35;;
62163;SDS011;48149;51.132;7.178;2023-10-13T10:00:46;10.73;;;4.15;;
62163;SDS011;48149;51.132;7.178;2023-10-13T10:03:23;11.82;;;4.10;;
62163;SDS011;48149;51.132;7.178;2023-10-13T10:05:56;7.97;;;4.32;;
62163;SDS011;48149;51.132;7.178;2023-10-13T10:08:45;11.15;;;3.80;;
62163;SDS011;48149;51.132;7.178;2023-10-13T10:14:04;10.65;;;4.10;;
62163;SDS011;48149;51.132;7.178;2023-10-13T10:16:39;11.40;;;4.80;;
62163;SDS011;48149;51.132;7.178;2023-10-13T10:19:07;10.38;;;4.20;;
62163;SDS011;48149;51.132;7.178;2023-10-13T10:21:35;12.30;;;4.22;;
62163;SDS011;48149;51.132;7.178;2023-10-13T10:24:02;10.07;;;4.65;;
62163;SDS011;48149;51.132;7.178;2023-10-13T10:26:38;14.82;;;4.90;;
62163;SDS011;48149;51.132;7.178;2023-10-13T10:29:14;9.98;;;5.05;;
62163;SDS011;48149;51.132;7.178;2023-10-13T10:31:40;10.23;;;4.50;;
62163;SDS011;48149;51.132;7.178;2023-10-13T10:34:15;8.48;;;4.70;;
62163;SDS011;48149;51.132;7.178;2023-10-13T10:36:47;13.85;;;5.10;;
62163;SDS011;48149;51.132;7.178;2023-10-13T10:39:18;15.45;;;5.35;;
62163;SDS011;48149;51.132;7.178;2023-10-13T10:41:43;11.98;;;4.88;;
62163;SDS011;48149;51.132;7.178;2023-10-13T10:44:17;11.15;;;4.55;;
62163;SDS011;48149;51.132;7.178;2023-10-13T10:47:08;8.15;;;4.70;;
62163;SDS011;48149;51.132;7.178;2023-10-13T10:49:37;10.75;;;5.10;;
62163;SDS011;48149;51.132;7.178;2023-10-13T10:52:03;8.70;;;4.70;;
62163;SDS011;48149;51.132;7.178;2023-10-13T10:54:31;11.98;;;5.35;;
62163;SDS011;48149;51.132;7.178;2023-10-13T10:56:57;12.30;;;5.18;;
62163;SDS011;48149;51.132;7.178;2023-10-13T10:59:52;11.10;;;5.32;;
62163;SDS011;48149;51.132;7.178;2023-10-13T11:02:34;10.05;;;4.68;;
62163;SDS011;48149;51.132;7.178;2023-10-13T11:05:00;9.50;;;5.32;;
62163;SDS011;48149;51.132;7.178;2023-10-13T11:07:26;7.90;;;4.93;;
62163;SDS011;48149;51.132;7.178;2023-10-13T11:09:53;8.18;;;5.32;;
62163;SDS011;48149;51.132;7.178;2023-10-13T11:12:31;12.45;;;4.45;;
62163;SDS011;48149;51.132;7.178;2023-10-13T11:15:08;11.25;;;4.93;;
62163;SDS011;48149;51.132;7.178;2023-10-13T11:17:54;11.05;;;5.03;;
62163;SDS011;48149;51.132;7.178;2023-10-13T11:20:23;11.63;;;5.20;;
62163;SDS011;48149;51.132;7.178;2023-10-13T11:22:59;10.05;;;4.82;;
62163;SDS011;48149;51.132;7.178;2023-10-13T11:25:26;12.55;;;5.30;;
62163;SDS011;48149;51.132;7.178;2023-10-13T11:27:55;14.65;;;5.30;;
62163;SDS011;48149;51.132;7.178;2023-10-13T11:30:22;7.95;;;4.25;;
62163;SDS011;48149;51.132;7.178;2023-10-13T11:33:02;11.40;;;5.05;;
62163;SDS011;48149;51.132;7.178;2023-10-13T11:35:32;11.25;;;5.22;;
62163;SDS011;48149;51.132;7.178;2023-10-13T11:38:17;12.05;;;5.07;;
62163;SDS011;48149;51.132;7.178;2023-10-13T11:43:29;13.07;;;5.05;;
62163;SDS011;48149;51.132;7.178;2023-10-13T11:46:14;16.02;;;6.43;;
62163;SDS011;48149;51.132;7.178;2023-10-13T11:48:43;13.10;;;5.57;;
62163;SDS011;48149;51.132;7.178;2023-10-13T11:51:10;11.70;;;5.10;;
62163;SDS011;48149;51.132;7.178;2023-10-13T11:53:45;11.40;;;5.25;;
62163;SDS011;48149;51.132;7.178;2023-10-13T11:56:17;9.02;;;5.18;;
62163;SDS011;48149;51.132;7.178;2023-10-13T11:58:46;11.85;;;5.10;;
62163;SDS011;48149;51.132;7.178;2023-10-13T12:01:12;13.23;;;4.75;;
62163;SDS011;48149;51.132;7.178;2023-10-13T12:03:41;15.57;;;5.78;;
62163;SDS011;48149;51.132;7.178;2023-10-13T12:06:26;9.93;;;4.50;;
62163;SDS011;48149;51.132;7.178;2023-10-13T12:11:42;10.20;;;4.90;;
62163;SDS011;48149;51.132;7.178;2023-10-13T12:14:10;8.82;;;4.95;;
62163;SDS011;48149;51.132;7.178;2023-10-13T12:16:54;13.95;;;4.75;;
62163;SDS011;48149;51.132;7.178;2023-10-13T12:19:21;11.00;;;4.97;;
62163;SDS011;48149;51.132;7.178;2023-10-13T12:21:50;26.20;;;9.07;;
62163;SDS011;48149;51.132;7.178;2023-10-13T12:24:28;12.53;;;5.63;;
62163;SDS011;48149;51.132;7.178;2023-10-13T12:26:59;13.27;;;4.97;;
62163;SDS011;48149;51.132;7.178;2023-10-13T12:29:25;15.35;;;4.97;;
62163;SDS011;48149;51.132;7.178;2023-10-13T12:31:54;13.80;;;5.07;;
62163;SDS011;48149;51.132;7.178;2023-10-13T12:34:38;10.07;;;4.45;;
62163;SDS011;48149;51.132;7.178;2023-10-13T12:37:22;10.07;;;4.82;;
62163;SDS011;48149;51.132;7.178;2023-10-13T12:40:06;16.58;;;4.88;;
62163;SDS011;48149;51.132;7.178;2023-10-13T12:42:53;14.50;;;4.82;;
62163;SDS011;48149;51.132;7.178;2023-10-13T12:45:41;11.38;;;5.18;;
62163;SDS011;48149;51.132;7.178;2023-10-13T12:48:26;8.95;;;4.40;;
62163;SDS011;48149;51.132;7.178;2023-10-13T12:51:10;13.00;;;5.85;;
62163;SDS011;48149;51.132;7.178;2023-10-13T12:53:48;12.88;;;4.55;;
62163;SDS011;48149;51.132;7.178;2023-10-13T12:56:18;12.57;;;4.53;;
62163;SDS011;48149;51.132;7.178;2023-10-13T12:58:51;9.50;;;4.05;;
62163;SDS011;48149;51.132;7.178;2023-10-13T13:01:19;11.57;;;4.47;;
62163;SDS011;48149;51.132;7.178;2023-10-13T13:03:46;11.88;;;4.70;;
62163;SDS011;48149;51.132;7.178;2023-10-13T13:06:19;11.57;;;4.75;;
62163;SDS011;48149;51.132;7.178;2023-10-13T13:11:17;8.38;;;4.28;;
62163;SDS011;48149;51.132;7.178;2023-10-13T13:13:42;15.27;;;4.70;;
62163;SDS011;48149;51.132;7.178;2023-10-13T13:16:08;12.32;;;4.22;;
62163;SDS011;48149;51.132;7.178;2023-10-13T13:18:34;12.18;;;4.15;;
62163;SDS011;48149;51.132;7.178;2023-10-13T13:21:00;15.38;;;4.88;;
62163;SDS011;48149;51.132;7.178;2023-10-13T13:23:27;6.95;;;4.47;;
62163;SDS011;48149;51.132;7.178;2023-10-13T13:25:52;13.63;;;4.78;;
62163;SDS011;48149;51.132;7.178;2023-10-13T13:28:18;13.00;;;4.82;;
62163;SDS011;48149;51.132;7.178;2023-10-13T13:30:44;12.73;;;4.63;;
62163;SDS011;48149;51.132;7.178;2023-10-13T13:33:09;10.82;;;4.03;;
62163;SDS011;48149;51.132;7.178;2023-10-13T13:35:37;14.70;;;4.20;;
62163;SDS011;48149;51.132;7.178;2023-10-13T13:38:03;16.02;;;4.15;;
62163;SDS011;48149;51.132;7.178;2023-10-13T13:40:36;17.08;;;4.25;;
62163;SDS011;48149;51.132;7.178;2023-10-13T13:43:02;13.63;;;4.07;;
62163;SDS011;48149;51.132;7.178;2023-10-13T13:45:28;11.93;;;4.20;;
62163;SDS011;48149;51.132;7.178;2023-10-13T13:47:53;13.43;;;4.65;;
62163;SDS011;48149;51.132;7.178;2023-10-13T13:50:20;9.90;;;4.10;;
62163;SDS011;48149;51.132;7.178;2023-10-13T13:52:52;10.77;;;3.92;;
62163;SDS011;48149;51.132;7.178;2023-10-13T13:55:20;13.10;;;3.78;;
62163;SDS011;48149;51.132;7.178;2023-10-13T13:57:46;14.75;;;4.40;;
62163;SDS011;48149;51.132;7.178;2023-10-13T14:00:15;13.38;;;4.32;;
62163;SDS011;48149;51.132;7.178;2023-10-13T14:02:50;21.95;;;4.40;;
62163;SDS011;48149;51.132;7.178;2023-10-13T14:05:15;17.60;;;5.00;;
62163;SDS011;48149;51.132;7.178;2023-10-13T14:07:44;10.27;;;4.50;;
62163;SDS011;48149;51.132;7.178;2023-10-13T14:10:14;10.48;;;4.13;;
62163;SDS011;48149;51.132;7.178;2023-10-13T14:12:56;10.27;;;4.15;;
62163;SDS011;48149;51.132;7.178;2023-10-13T14:15:32;13.80;;;4.45;;
62163;SDS011;48149;51.132;7.178;2023-10-13T14:18:04;12.90;;;4.28;;
62163;SDS011;48149;51.132;7.178;2023-10-13T14:20:32;15.93;;;4.05;;
62163;SDS011;48149;51.132;7.178;2023-10-13T14:22:58;17.55;;;4.15;;
62163;SDS011;48149;51.132;7.178;2023-10-13T14:25:23;17.48;;;4.45;;
62163;SDS011;48149;51.132;7.178;2023-10-13T14:27:53;11.13;;;4.45;;
62163;SDS011;48149;51.132;7.178;2023-10-13T14:30:19;18.42;;;3.78;;
62163;SDS011;48149;51.132;7.178;2023-10-13T14:32:44;13.13;;;4.70;;
62163;SDS011;48149;51.132;7.178;2023-10-13T14:35:10;9.55;;;4.03;;
62163;SDS011;48149;51.132;7.178;2023-10-13T14:37:41;13.98;;;4.55;;
62163;SDS011;48149;51.132;7.178;2023-10-13T14:40:07;11.27;;;4.60;;
62163;SDS011;48149;51.132;7.178;2023-10-13T14:42:37;12.43;;;4.63;;
62163;SDS011;48149;51.132;7.178;2023-10-13T14:45:05;11.80;;;3.75;;
62163;SDS011;48149;51.132;7.178;2023-10-13T14:47:37;15.00;;;4.15;;
62163;SDS011;48149;51.132;7.178;2023-10-13T14:50:04;15.98;;;4.28;;
62163;SDS011;48149;51.132;7.178;2023-10-13T14:52:30;12.63;;;4.60;;
62163;SDS011;48149;51.132;7.178;2023-10-13T14:54:57;14.50;;;4.30;;
62163;SDS011;48149;51.132;7.178;2023-10-13T14:57:22;10.98;;;4.18;;
62163;SDS011;48149;51.132;7.178;2023-10-13T14:59:51;10.55;;;4.85;;
62163;SDS011;48149;51.132;7.178;2023-10-13T15:02:17;10.00;;;4.35;;
62163;SDS011;48149;51.132;7.178;2023-10-13T15:04:43;13.15;;;4.38;;
62163;SDS011;48149;51.132;7.178;2023-10-13T15:07:08;12.52;;;4.18;;
62163;SDS011;48149;51.132;7.178;2023-10-13T15:09:34;11.80;;;4.70;;
62163;SDS011;48149;51.132;7.178;2023-10-13T15:11:59;10.50;;;4.60;;
62163;SDS011;48149;51.132;7.178;2023-10-13T15:14:24;12.80;;;4.60;;
62163;SDS011;48149;51.132;7.178;2023-10-13T15:16:50;10.30;;;4.43;;
62163;SDS011;48149;51.132;7.178;2023-10-13T15:19:17;12.50;;;5.00;;
62163;SDS011;48149;51.132;7.178;2023-10-13T15:21:43;15.95;;;4.65;;
62163;SDS011;48149;51.132;7.178;2023-10-13T15:24:14;10.05;;;4.45;;
62163;SDS011;48149;51.132;7.178;2023-10-13T15:26:39;13.27;;;4.50;;
62163;SDS011;48149;51.132;7.178;2023-10-13T15:29:10;11.85;;;4.15;;
62163;SDS011;48149;51.132;7.178;2023-10-13T15:31:50;16.40;;;5.43;;
62163;SDS011;48149;51.132;7.178;2023-10-13T15:34:24;7.95;;;3.65;;
62163;SDS011;48149;51.132;7.178;2023-10-13T15:36:52;10.55;;;4.45;;